createdAt,value
2022-12-28T03:46:20.969Z,26.91
2022-12-28T03:57:20.570Z,27.94
2022-12-28T03:58:20.535Z,27.96
2022-12-28T03:59:20.494Z,26.70
2022-12-28T04:00:20.470Z,26.18
2022-12-28T04:01:20.607Z,26.91
2022-12-28T04:02:20.553Z,29.70
2022-12-28T04:03:20.376Z,26.49
2022-12-28T04:04:20.305Z,27.61
2022-12-28T04:05:20.269Z,25.74
2022-12-28T04:06:20.246Z,27.38
2022-12-28T04:07:20.201Z,28.41
2022-12-28T04:08:20.193Z,29.19
2022-12-28T04:09:20.130Z,27.38
2022-12-28T04:10:20.112Z,26.69
2022-12-28T06:59:14.324Z,27.22
2022-12-28T07:00:14.289Z,28.09
2022-12-28T07:01:14.440Z,26.82
2022-12-28T07:02:14.326Z,26.37
2022-12-28T07:03:14.238Z,27.06
2022-12-28T07:04:14.163Z,26.38
2022-12-28T07:05:14.117Z,26.45
2022-12-28T07:06:14.075Z,26.61
2022-12-28T07:07:14.036Z,26.79
2022-12-28T07:08:14.009Z,27.07
2022-12-28T07:09:14.000Z,26.87
2022-12-28T07:10:13.941Z,26.06
2022-12-28T07:11:13.913Z,27.22
2022-12-28T07:12:13.868Z,27.20
2022-12-28T07:13:13.825Z,25.11
2022-12-28T07:14:13.825Z,25.44
2022-12-28T07:15:13.768Z,26.05
2022-12-28T07:16:13.827Z,26.44
2022-12-28T07:17:13.730Z,27.36
2022-12-28T07:57:12.242Z,27.99
2022-12-28T07:59:12.166Z,27.26
2022-12-28T08:00:12.137Z,28.95
2022-12-28T08:01:12.141Z,28.01
2022-12-28T08:02:12.183Z,28.61
2022-12-28T08:03:12.077Z,28.57
2022-12-28T08:04:11.974Z,29.21
2022-12-28T08:05:11.945Z,27.63
2022-12-28T08:06:11.901Z,28.49
2022-12-28T08:07:11.867Z,25.76
2022-12-28T08:08:11.837Z,26.93
2022-12-28T08:09:11.805Z,28.36
2022-12-28T08:10:11.767Z,28.00
2022-12-28T08:11:11.751Z,27.07
2022-12-28T08:12:11.730Z,27.91
2022-12-28T08:13:11.689Z,25.06
2022-12-28T08:14:11.687Z,27.90
2022-12-28T08:15:11.646Z,29.55
2022-12-28T08:16:11.689Z,27.77
2022-12-28T08:17:14.893Z,29.61
2022-12-28T08:18:12.563Z,29.79
2022-12-28T08:19:11.536Z,29.76
2022-12-28T08:20:11.521Z,29.54
2022-12-28T08:21:11.484Z,29.78
2022-12-28T08:22:11.460Z,29.63
2022-12-28T08:23:11.429Z,28.23
2022-12-28T08:24:11.411Z,27.74
2022-12-28T08:25:11.366Z,25.65
2022-12-28T08:26:11.346Z,27.15
2022-12-28T08:27:11.313Z,27.09
2022-12-28T08:28:11.271Z,26.66
2022-12-28T08:29:11.233Z,28.56
2022-12-28T08:30:11.213Z,25.77
2022-12-28T08:31:11.275Z,28.07
2022-12-28T08:32:11.150Z,28.27
2022-12-28T08:33:11.096Z,28.15
2022-12-28T08:34:11.067Z,27.90
2022-12-28T08:35:11.095Z,26.00
2022-12-28T11:38:04.176Z,35.16
2022-12-28T11:39:04.141Z,35.82
2022-12-28T11:40:04.102Z,35.80
2022-12-28T11:41:04.066Z,34.91
2022-12-28T11:42:38.014Z,34.12
2022-12-28T11:43:04.994Z,34.42
2022-12-28T11:44:03.954Z,34.56
2022-12-28T11:45:03.936Z,34.76
2022-12-28T11:46:03.903Z,35.09
2022-12-28T11:47:03.845Z,35.46
2022-12-28T11:48:03.807Z,35.15
2022-12-28T11:49:03.782Z,36.11
2022-12-28T11:50:03.728Z,34.25
2022-12-28T11:51:03.695Z,34.92
2022-12-28T11:52:03.656Z,34.46
2022-12-28T11:53:06.642Z,35.36
2022-12-28T11:54:04.586Z,35.58
2022-12-28T11:55:03.544Z,35.53
2022-12-28T11:56:03.518Z,35.68
2022-12-28T11:57:03.481Z,35.30
2022-12-28T11:58:03.447Z,34.55
2022-12-28T11:59:03.419Z,33.85
2022-12-28T12:00:03.368Z,33.17
2022-12-28T12:01:03.390Z,32.72
2022-12-28T12:02:03.327Z,32.91
2022-12-28T12:03:03.321Z,33.69
2022-12-28T12:04:03.210Z,32.69
2022-12-28T12:05:03.169Z,32.42
2022-12-28T12:06:03.124Z,33.31
2022-12-28T12:07:03.100Z,33.58
2022-12-28T12:08:03.041Z,33.72
2022-12-28T12:09:03.003Z,33.25
2022-12-28T12:10:02.982Z,31.79
2022-12-28T12:11:02.935Z,31.93
2022-12-28T12:12:02.889Z,32.71
2022-12-28T12:13:02.856Z,33.98
2022-12-28T12:14:02.808Z,31.74
2022-12-28T12:15:02.769Z,33.02
2022-12-28T12:16:02.734Z,31.47
2022-12-28T12:17:02.741Z,28.24
2022-12-28T12:18:02.677Z,30.35
2022-12-28T12:19:02.631Z,29.30
2022-12-28T12:20:02.607Z,29.18
2022-12-28T12:21:02.548Z,31.64
2022-12-28T12:22:02.498Z,29.19
2022-12-28T12:23:02.473Z,29.01
2022-12-28T12:24:02.436Z,29.52
2022-12-28T12:25:02.409Z,30.06
2022-12-28T12:26:02.351Z,30.09
2022-12-28T12:27:06.080Z,30.24
2022-12-28T12:28:03.279Z,30.48
2022-12-28T12:29:02.236Z,30.56
2022-12-28T12:30:02.180Z,30.86
2022-12-28T12:31:02.185Z,31.43
2022-12-28T12:32:02.116Z,30.55
2022-12-28T12:33:02.069Z,33.37
2022-12-28T12:34:02.029Z,31.30
2022-12-28T12:35:01.981Z,32.03
2022-12-28T12:36:01.935Z,30.43
2022-12-28T12:37:01.928Z,31.88
2022-12-28T12:38:01.842Z,31.24
2022-12-28T12:39:01.804Z,31.59
2022-12-28T12:40:01.782Z,31.80
2022-12-28T12:41:01.716Z,30.37
2022-12-28T12:42:01.673Z,29.60
2022-12-28T12:43:01.635Z,30.16
2022-12-28T12:44:01.608Z,30.31
2022-12-28T12:45:01.563Z,28.94
2022-12-28T12:46:01.582Z,31.01
2022-12-28T12:47:05.617Z,31.53
2022-12-28T12:48:01.444Z,31.70
2022-12-28T12:49:01.411Z,31.86
2022-12-28T12:50:01.376Z,31.82
2022-12-28T12:51:01.349Z,32.06
2022-12-28T12:52:01.313Z,31.59
2022-12-28T12:53:01.263Z,30.90
2022-12-28T12:54:01.223Z,30.62
2022-12-28T12:55:01.189Z,32.12
2022-12-28T12:56:01.160Z,31.32
2022-12-28T12:57:01.126Z,31.84
2022-12-28T12:58:01.082Z,32.36
2022-12-28T16:10:54.107Z,26.98
2022-12-28T16:11:55.383Z,27.13
2022-12-28T16:12:54.048Z,26.99
2022-12-28T16:13:54.021Z,27.28
2022-12-28T16:14:53.993Z,26.74
2022-12-28T16:15:53.960Z,27.39
2022-12-28T16:16:53.979Z,26.78
2022-12-28T16:17:57.546Z,28.10
2022-12-28T16:18:53.874Z,28.18
2022-12-28T16:19:53.852Z,28.40
2022-12-28T16:20:53.792Z,27.69
2022-12-28T16:21:53.758Z,27.28
2022-12-28T16:22:53.792Z,27.19
2022-12-28T16:23:53.693Z,26.90
2022-12-28T16:24:53.660Z,26.84
2022-12-28T16:25:53.637Z,26.26
2022-12-28T16:26:53.605Z,26.73
2022-12-28T16:27:53.570Z,25.12
2022-12-28T16:28:53.545Z,26.79
2022-12-28T16:29:58.582Z,25.54
2022-12-28T16:30:54.494Z,25.93
2022-12-28T16:31:53.549Z,26.22
2022-12-28T16:32:53.433Z,26.46
2022-12-28T16:33:53.404Z,26.65
2022-12-28T16:34:53.363Z,28.05
2022-12-28T16:35:59.319Z,27.72
2022-12-28T16:36:54.299Z,27.94
2022-12-28T16:37:53.257Z,27.88
2022-12-28T16:38:53.225Z,26.95
2022-12-28T16:39:53.193Z,28.30
2022-12-28T16:40:53.161Z,26.02
2022-12-28T16:41:53.131Z,27.72
2022-12-28T16:42:53.096Z,25.67
2022-12-28T16:43:53.059Z,26.00
2022-12-28T16:44:53.027Z,26.99
2022-12-28T16:45:53.043Z,25.54
2022-12-28T16:46:52.963Z,26.95
2022-12-28T16:47:52.939Z,25.54
2022-12-28T16:48:52.907Z,27.02
2022-12-28T16:49:52.886Z,25.99
2022-12-28T16:50:52.886Z,26.52
2022-12-28T16:51:52.840Z,27.26
2022-12-28T16:52:52.807Z,27.81
2022-12-28T16:53:52.775Z,26.87
2022-12-28T16:54:52.738Z,26.64
2022-12-28T16:55:52.712Z,27.41
2022-12-28T16:56:52.679Z,27.96
2022-12-28T16:57:52.648Z,26.70
2022-12-28T16:58:52.629Z,26.04
2022-12-28T16:59:52.608Z,25.56
2022-12-28T17:00:52.662Z,27.04
2022-12-28T17:01:52.708Z,26.58
2022-12-28T17:02:52.678Z,27.52
2022-12-28T17:03:52.509Z,26.69
2022-12-28T17:04:52.479Z,27.26
2022-12-28T17:05:52.502Z,26.17
2022-12-28T17:06:52.444Z,27.76
2022-12-28T17:07:52.410Z,27.07
2022-12-28T17:08:52.394Z,27.24
2022-12-28T17:09:52.358Z,28.13
2022-12-28T17:10:52.323Z,26.04
2022-12-28T17:11:52.288Z,27.08
2022-12-28T17:12:52.262Z,27.46
2022-12-28T17:13:52.239Z,27.10
2022-12-28T17:14:52.216Z,26.31
2022-12-28T17:15:52.208Z,25.94
2022-12-28T17:16:52.213Z,27.06
2022-12-28T17:17:52.144Z,25.59
2022-12-28T17:18:52.113Z,26.73
2022-12-28T17:19:52.082Z,26.94
2022-12-28T17:20:52.066Z,27.17
2022-12-28T17:21:52.051Z,27.10
2022-12-28T17:22:52.005Z,26.37
2022-12-28T17:23:51.979Z,26.88
2022-12-28T17:24:51.953Z,27.83
2022-12-28T17:25:51.933Z,27.50
2022-12-28T17:26:51.905Z,25.99
2022-12-28T17:27:51.900Z,27.36
2022-12-28T17:28:51.864Z,27.52
2022-12-28T17:29:51.851Z,27.29
2022-12-28T17:30:51.798Z,27.48
2022-12-28T17:31:51.831Z,26.98
2022-12-28T17:32:51.730Z,27.89
2022-12-28T17:33:51.689Z,25.09
2022-12-28T17:34:51.653Z,27.07
2022-12-28T17:35:51.617Z,25.79
2022-12-28T17:36:51.600Z,25.77
2022-12-28T17:37:51.559Z,25.81
2022-12-28T17:38:51.526Z,25.00
2022-12-28T17:39:51.507Z,27.23
2022-12-28T17:40:51.446Z,26.76
2022-12-28T17:41:51.415Z,26.39
2022-12-28T17:42:51.386Z,27.85
2022-12-28T17:43:51.337Z,27.72
2022-12-28T17:44:51.320Z,27.27
2022-12-28T17:45:51.368Z,27.31
2022-12-28T17:46:51.252Z,28.11
2022-12-28T17:47:51.213Z,28.97
2022-12-28T17:48:51.161Z,28.12
2022-12-28T17:49:51.121Z,27.09
2022-12-28T17:50:51.108Z,26.40
2022-12-28T17:51:51.057Z,28.67
2022-12-28T21:17:44.681Z,30.80
2022-12-28T21:18:44.635Z,29.10
2022-12-28T21:19:44.617Z,28.66
2022-12-28T21:20:44.565Z,29.11
2022-12-28T21:21:44.528Z,27.59
2022-12-28T21:22:44.509Z,29.51
2022-12-28T21:23:44.468Z,27.65
2022-12-28T21:24:44.453Z,29.26
2022-12-28T21:25:44.455Z,28.81
2022-12-28T21:26:44.391Z,29.41
2022-12-28T21:27:44.350Z,30.39
2022-12-28T21:28:44.360Z,28.87
2022-12-28T21:29:44.285Z,30.83
2022-12-28T21:30:44.257Z,29.12
2022-12-28T21:31:44.252Z,30.55
2022-12-28T21:32:44.188Z,28.73
2022-12-28T21:33:44.181Z,27.37
2022-12-28T21:34:44.136Z,29.33
2022-12-28T21:35:44.087Z,29.67
2022-12-28T21:36:44.050Z,29.92
2022-12-28T21:37:44.026Z,28.34
2022-12-28T21:38:43.997Z,27.46
2022-12-28T21:39:43.956Z,27.97
2022-12-28T21:40:43.929Z,28.95
2022-12-28T21:41:43.898Z,28.87
2022-12-28T21:42:43.868Z,28.10
2022-12-28T21:43:43.843Z,28.28
2022-12-28T21:44:43.835Z,28.83
2022-12-28T21:45:43.825Z,27.58
2022-12-28T21:46:43.769Z,28.29
2022-12-28T21:47:43.735Z,28.18
2022-12-28T21:48:43.701Z,29.33
2022-12-28T21:49:43.676Z,29.43
2022-12-28T21:50:43.636Z,25.25
2022-12-28T21:51:43.597Z,28.62
2022-12-28T21:52:43.575Z,29.05
2022-12-28T21:53:43.536Z,30.47
2022-12-28T21:54:43.509Z,28.38
2022-12-28T21:55:43.488Z,27.51
2022-12-28T21:56:43.456Z,27.08
2022-12-28T21:57:43.420Z,30.71
2022-12-28T21:58:43.393Z,29.17
2022-12-28T21:59:43.351Z,29.10
2022-12-28T22:00:43.395Z,30.41
2022-12-28T22:01:43.442Z,29.77
2022-12-28T22:02:43.411Z,29.30
2022-12-28T22:03:43.212Z,29.77
2022-12-28T22:04:43.253Z,29.84
2022-12-28T22:05:43.173Z,30.31
2022-12-28T22:06:43.131Z,30.72
2022-12-28T22:07:43.097Z,29.94
2022-12-28T22:08:43.065Z,29.09
2022-12-28T22:09:43.030Z,28.84
2022-12-28T22:10:43.007Z,28.19
2022-12-28T22:11:42.980Z,30.19
2022-12-28T22:12:42.948Z,29.31
2022-12-28T22:13:42.915Z,28.33
2022-12-28T22:14:42.897Z,30.48
2022-12-28T22:15:42.851Z,29.53
2022-12-28T22:16:42.903Z,31.10
2022-12-28T22:17:42.783Z,27.76
2022-12-28T22:19:01.489Z,27.59
2022-12-28T22:19:43.719Z,27.79
2022-12-28T22:20:42.698Z,28.12
2022-12-28T22:21:42.662Z,28.28
2022-12-28T22:22:42.616Z,28.07
2022-12-28T22:23:42.593Z,29.09
2022-12-28T22:24:42.556Z,28.10
2022-12-28T22:25:42.548Z,29.70
2022-12-28T22:26:42.498Z,29.32
2022-12-28T22:27:42.469Z,28.51
2022-12-28T22:28:42.439Z,29.69
2022-12-28T22:29:42.407Z,28.87
2022-12-28T22:30:42.377Z,28.12
2022-12-28T22:31:42.375Z,26.78
2022-12-28T22:32:42.303Z,28.48
2022-12-28T22:33:42.259Z,30.48
2022-12-28T22:34:42.239Z,29.37
2022-12-28T22:35:42.202Z,30.41
2022-12-28T22:36:42.180Z,29.26
2022-12-28T22:37:42.130Z,29.27
2022-12-28T22:38:42.129Z,30.99
2022-12-28T22:39:42.065Z,30.48
2022-12-28T22:40:42.030Z,29.00
2022-12-28T22:41:42.001Z,29.84
2022-12-28T22:42:41.967Z,30.50
2022-12-28T22:43:41.932Z,30.47
2022-12-28T22:44:41.891Z,29.78
2022-12-28T22:45:41.891Z,28.21
2022-12-28T22:46:41.829Z,29.30
2022-12-28T22:47:41.789Z,29.93
2022-12-28T22:48:41.756Z,29.29
2022-12-28T22:49:41.725Z,30.73
2022-12-28T22:50:43.394Z,29.16
2022-12-28T22:51:41.657Z,28.39
2022-12-28T22:52:41.624Z,30.76
2022-12-28T22:53:41.596Z,29.44
2022-12-28T22:54:41.556Z,28.76
2022-12-28T22:55:41.529Z,28.96
2022-12-28T22:56:41.495Z,28.66
2022-12-28T22:57:41.457Z,28.71
2022-12-28T22:58:41.440Z,31.39
2022-12-28T22:59:41.405Z,32.39
2022-12-28T23:00:41.383Z,31.35
2022-12-28T23:01:41.455Z,30.51
2022-12-28T23:02:41.552Z,27.48
2022-12-28T23:03:41.314Z,30.87
2022-12-28T23:04:41.271Z,31.13
2022-12-28T23:05:41.245Z,31.24
2022-12-28T23:06:41.222Z,31.76
2022-12-28T23:07:41.193Z,30.01
2022-12-28T23:08:41.172Z,30.45
2022-12-28T23:09:41.129Z,31.05
2022-12-28T23:10:41.100Z,31.29
2022-12-28T23:11:41.069Z,31.53
